createdAt,value
2023-04-27T00:00:03.994Z,4.10
2023-04-27T00:03:07.513Z,4.27
2023-04-27T00:06:11.141Z,5.27
2023-04-27T00:09:14.368Z,7.13
2023-04-27T00:12:19.029Z,6.87
2023-04-27T00:15:22.440Z,4.00
2023-04-27T00:18:25.465Z,3.60
2023-04-27T00:21:28.880Z,4.30
2023-04-27T00:24:32.022Z,4.10
2023-04-27T00:27:36.866Z,6.90
2023-04-27T00:30:39.978Z,4.20
2023-04-27T00:33:43.014Z,3.97
2023-04-27T00:36:46.123Z,4.43
2023-04-27T00:39:49.197Z,6.67
2023-04-27T00:42:53.672Z,5.40
2023-04-27T00:45:56.904Z,4.53
2023-04-27T00:49:01.530Z,4.57
2023-04-27T00:52:04.631Z,4.93
2023-04-27T00:55:09.531Z,8.20
2023-04-27T00:58:13.979Z,4.57
2023-04-27T01:01:17.983Z,4.60
2023-04-27T01:04:21.679Z,4.77
2023-04-27T01:07:27.291Z,6.30
2023-04-27T01:10:30.518Z,4.90
2023-04-27T01:13:35.010Z,4.77
2023-04-27T01:16:39.027Z,5.23
2023-04-27T01:19:42.249Z,8.93
2023-04-27T01:22:45.359Z,4.87
2023-04-27T01:25:49.808Z,5.90
2023-04-27T01:28:52.981Z,5.97
2023-04-27T01:31:56.280Z,6.03
2023-04-27T01:34:59.414Z,5.10
2023-04-27T01:38:02.699Z,4.87
2023-04-27T01:41:09.275Z,4.93
2023-04-27T01:44:12.424Z,4.83
2023-04-27T01:47:17.337Z,4.97
2023-04-27T01:50:20.868Z,4.93
2023-04-27T01:53:24.046Z,5.20
2023-04-27T01:56:28.581Z,5.33
2023-04-27T01:59:31.742Z,4.63
2023-04-27T02:02:35.036Z,4.47
2023-04-27T02:05:38.290Z,4.80
2023-04-27T02:08:41.566Z,6.13
2023-04-27T02:11:46.550Z,4.93
2023-04-27T02:14:49.673Z,4.27
2023-04-27T02:17:52.869Z,4.80
2023-04-27T02:20:58.330Z,7.67
2023-04-27T02:24:02.025Z,5.10
2023-04-27T02:27:07.053Z,6.10
2023-04-27T02:30:12.704Z,8.10
2023-04-27T02:33:16.478Z,6.57
2023-04-27T02:36:19.628Z,7.87
2023-04-27T02:39:22.743Z,7.13
2023-04-27T02:42:27.505Z,4.40
2023-04-27T02:45:30.864Z,4.83
2023-04-27T02:48:33.938Z,4.90
2023-04-27T02:51:37.145Z,5.23
2023-04-27T02:54:40.532Z,5.73
2023-04-27T02:57:44.988Z,4.63
2023-04-27T03:00:48.936Z,7.20
2023-04-27T03:03:52.422Z,7.73
2023-04-27T03:06:55.610Z,5.80
2023-04-27T03:09:58.642Z,4.63
2023-04-27T03:13:03.087Z,4.83
2023-04-27T03:16:06.846Z,6.80
2023-04-27T03:19:10.289Z,5.40
2023-04-27T03:22:13.455Z,5.30
2023-04-27T03:25:16.897Z,5.00
2023-04-27T03:28:21.704Z,4.13
2023-04-27T03:31:24.867Z,5.03
2023-04-27T03:34:27.822Z,4.80
2023-04-27T03:37:31.316Z,7.57
2023-04-27T03:40:34.344Z,6.77
2023-04-27T03:43:38.671Z,5.33
2023-04-27T03:46:41.718Z,5.33
2023-04-27T03:49:44.672Z,5.37
2023-04-27T03:52:47.629Z,5.97
2023-04-27T03:55:50.650Z,5.20
2023-04-27T03:58:55.335Z,5.37
2023-04-27T04:02:00.956Z,5.23
2023-04-27T04:05:04.613Z,6.07
2023-04-27T04:08:08.106Z,6.70
2023-04-27T04:11:11.110Z,6.27
2023-04-27T04:14:15.526Z,4.50
2023-04-27T04:17:18.641Z,8.27
2023-04-27T04:20:23.161Z,5.90
2023-04-27T04:23:27.218Z,4.40
2023-04-27T04:26:30.762Z,4.90
2023-04-27T04:29:35.123Z,4.67
2023-04-27T04:32:38.803Z,4.63
2023-04-27T04:35:42.847Z,6.10
2023-04-27T04:38:45.933Z,9.87
2023-04-27T04:41:49.643Z,6.73
2023-04-27T04:44:54.068Z,4.80
2023-04-27T04:47:57.077Z,4.70
2023-04-27T04:51:00.644Z,6.17
2023-04-27T04:54:03.676Z,6.13
2023-04-27T04:57:07.761Z,5.43
2023-04-27T05:00:14.084Z,5.43
2023-04-27T05:03:17.182Z,7.87
2023-04-27T05:06:20.301Z,6.27
2023-04-27T05:09:25.216Z,8.97
2023-04-27T05:12:28.255Z,5.17
2023-04-27T05:15:32.684Z,6.57
2023-04-27T05:18:36.120Z,7.40
2023-04-27T05:21:39.235Z,7.30
2023-04-27T05:24:42.514Z,4.90
2023-04-27T05:27:45.464Z,6.60
2023-04-27T05:30:50.032Z,5.13
2023-04-27T05:33:53.042Z,13.17
2023-04-27T05:36:56.035Z,5.17
2023-04-27T05:39:59.278Z,4.73
2023-04-27T05:43:05.323Z,5.43
2023-04-27T05:46:09.939Z,6.83
2023-04-27T05:49:13.153Z,10.47
2023-04-27T05:52:16.441Z,6.87
2023-04-27T05:55:19.612Z,7.80
2023-04-27T05:58:23.028Z,4.80
2023-04-27T06:01:27.433Z,5.77
2023-04-27T06:04:32.751Z,7.50
2023-04-27T06:07:37.576Z,5.30
2023-04-27T06:10:40.842Z,6.77
2023-04-27T06:13:43.790Z,5.73
2023-04-27T06:16:48.190Z,8.00
2023-04-27T06:19:51.584Z,5.97
2023-04-27T06:22:56.938Z,7.47
2023-04-27T06:25:59.976Z,8.20
2023-04-27T06:29:04.072Z,6.30
2023-04-27T06:32:08.712Z,4.03
2023-04-27T06:35:12.363Z,5.03
2023-04-27T06:38:15.376Z,4.17
2023-04-27T06:41:18.600Z,4.93
2023-04-27T06:44:21.730Z,3.80
2023-04-27T06:47:26.725Z,3.83
2023-04-27T06:50:30.590Z,3.83
2023-04-27T06:53:34.077Z,6.57
2023-04-27T06:56:37.166Z,4.77
2023-04-27T06:59:40.598Z,3.80
2023-04-27T07:02:45.032Z,4.53
2023-04-27T07:09:41.991Z,4.83
2023-04-27T07:12:44.963Z,3.60
2023-04-27T07:15:48.015Z,4.23
2023-04-27T07:18:52.465Z,4.47
2023-04-27T07:21:56.185Z,4.17
2023-04-27T07:24:59.295Z,6.20
2023-04-27T07:28:02.413Z,5.17
2023-04-27T07:31:06.742Z,4.23
2023-04-27T07:34:11.321Z,7.20
2023-04-27T07:37:15.900Z,4.13
2023-04-27T07:40:19.194Z,5.03
2023-04-27T07:43:23.691Z,4.10
2023-04-27T07:46:27.834Z,5.60
2023-04-27T07:49:32.408Z,4.27
2023-04-27T07:52:36.006Z,6.70
2023-04-27T07:55:40.889Z,4.37
2023-04-27T07:58:44.832Z,5.53
2023-04-27T08:01:47.979Z,4.23
2023-04-27T08:04:53.924Z,6.23
2023-04-27T08:07:57.495Z,4.30
2023-04-27T08:11:01.700Z,4.50
2023-04-27T08:14:04.690Z,4.53
2023-04-27T08:17:07.753Z,6.50
2023-04-27T08:20:13.548Z,4.00
2023-04-27T08:23:16.745Z,4.40
2023-04-27T08:26:19.835Z,4.23
2023-04-27T08:29:27.992Z,5.03
2023-04-27T08:32:32.082Z,4.27
2023-04-27T08:35:36.788Z,4.40
2023-04-27T08:38:39.848Z,4.63
2023-04-27T08:41:44.892Z,4.67
2023-04-27T08:44:47.858Z,5.50
2023-04-27T08:47:57.215Z,4.90
2023-04-27T08:51:03.270Z,4.37
2023-04-27T08:54:06.427Z,4.97
2023-04-27T08:57:13.310Z,4.20
2023-04-27T09:00:17.835Z,4.20
2023-04-27T09:03:24.401Z,4.30
2023-04-27T09:06:34.482Z,4.47
2023-04-27T09:09:37.465Z,4.70
2023-04-27T09:12:40.416Z,4.10
2023-04-27T09:15:47.137Z,5.43
2023-04-27T09:18:51.890Z,4.50
2023-04-27T09:22:07.325Z,5.30
2023-04-27T09:25:10.906Z,4.53
2023-04-27T09:28:16.569Z,4.00
2023-04-27T09:31:20.859Z,4.53
2023-04-27T09:34:24.052Z,4.87
2023-04-27T09:37:29.366Z,9.00
2023-04-27T09:40:33.576Z,6.67
2023-04-27T09:43:40.770Z,4.77
2023-04-27T09:46:45.570Z,3.90
2023-04-27T09:49:50.941Z,4.03
2023-04-27T09:52:55.637Z,4.13
2023-04-27T09:56:11.574Z,4.33
2023-04-27T09:59:49.693Z,4.10
2023-04-27T10:03:16.563Z,4.10
2023-04-27T10:06:56.532Z,4.10
2023-04-27T10:10:05.091Z,4.37
2023-04-27T10:13:08.463Z,4.50
2023-04-27T10:16:21.559Z,5.70
2023-04-27T10:19:25.714Z,3.73
2023-04-27T10:22:42.820Z,3.73
2023-04-27T10:25:48.078Z,3.70
2023-04-27T10:28:59.196Z,4.27
2023-04-27T10:32:08.148Z,3.47
2023-04-27T10:35:11.342Z,3.60
2023-04-27T10:38:17.665Z,3.20
2023-04-27T10:41:23.453Z,3.63
2023-04-27T10:44:28.632Z,4.00
2023-04-27T10:47:39.506Z,5.23
2023-04-27T10:50:44.763Z,5.00
2023-04-27T10:53:53.595Z,4.37
2023-04-27T10:57:03.896Z,2.90
2023-04-27T11:00:10.189Z,2.97
2023-04-27T11:03:16.594Z,2.83
2023-04-27T11:06:20.151Z,3.13
2023-04-27T11:09:29.236Z,3.27
2023-04-27T11:12:33.885Z,3.13
2023-04-27T11:15:47.803Z,3.60
2023-04-27T11:18:50.957Z,4.90
2023-04-27T11:21:54.030Z,4.83
2023-04-27T11:24:57.394Z,3.53
2023-04-27T11:28:01.976Z,3.53
2023-04-27T11:31:05.882Z,5.37
2023-04-27T11:34:09.517Z,5.83
2023-04-27T11:37:24.105Z,4.77
2023-04-27T11:40:29.019Z,3.03
2023-04-27T11:43:33.973Z,3.30
2023-04-27T11:46:41.434Z,7.07
2023-04-27T11:49:48.364Z,3.73
2023-04-27T11:52:52.748Z,4.20
2023-04-27T11:55:55.749Z,4.43
2023-04-27T11:59:00.209Z,4.10
2023-04-27T12:02:04.021Z,3.50
2023-04-27T12:05:09.464Z,4.83
2023-04-27T12:08:12.806Z,3.30
2023-04-27T12:11:16.324Z,2.83
2023-04-27T12:14:20.787Z,3.47
2023-04-27T12:17:23.875Z,3.97
2023-04-27T12:20:28.176Z,3.10
2023-04-27T12:23:31.467Z,3.00
2023-04-27T12:26:35.365Z,2.90
2023-04-27T12:29:39.806Z,2.97
2023-04-27T12:32:43.011Z,3.20
2023-04-27T12:35:46.141Z,3.50
2023-04-27T12:38:49.090Z,3.03
2023-04-27T12:41:52.504Z,3.00
2023-04-27T12:44:56.895Z,3.20
2023-04-27T12:48:03.928Z,5.63
2023-04-27T12:51:08.252Z,3.73
2023-04-27T12:54:12.983Z,3.10
2023-04-27T12:57:16.303Z,3.37
2023-04-27T13:00:21.350Z,3.13
2023-04-27T13:03:24.618Z,2.53
2023-04-27T13:06:28.515Z,3.00
2023-04-27T13:09:31.981Z,3.90
2023-04-27T13:12:35.214Z,3.10
2023-04-27T13:15:40.044Z,3.83
2023-04-27T13:18:49.390Z,4.57
2023-04-27T13:21:52.630Z,4.03
2023-04-27T13:24:55.877Z,4.43
2023-04-27T13:27:59.166Z,2.63
2023-04-27T13:31:04.145Z,2.43
2023-04-27T13:34:07.793Z,2.50
2023-04-27T13:37:10.967Z,2.53
2023-04-27T13:40:14.456Z,3.10
2023-04-27T13:43:17.432Z,3.73
2023-04-27T13:46:21.710Z,2.63
2023-04-27T13:49:24.764Z,2.47
2023-04-27T13:52:27.792Z,2.37
2023-04-27T13:55:30.801Z,2.57
2023-04-27T13:58:34.153Z,2.47
2023-04-27T14:01:40.064Z,2.47
2023-04-27T14:04:43.759Z,2.20
2023-04-27T14:07:47.011Z,2.70
2023-04-27T14:10:50.709Z,2.40
2023-04-27T14:13:53.760Z,2.60
2023-04-27T14:16:58.165Z,2.30
2023-04-27T14:20:01.613Z,2.60
2023-04-27T14:23:05.950Z,2.43
2023-04-27T14:26:10.160Z,3.40
2023-04-27T14:29:13.282Z,2.67
2023-04-27T14:32:18.519Z,2.43
2023-04-27T14:35:23.625Z,2.50
2023-04-27T14:38:26.681Z,3.77
2023-04-27T14:41:30.086Z,2.67
2023-04-27T14:44:33.386Z,2.77
2023-04-27T14:47:38.434Z,3.63
2023-04-27T14:50:41.646Z,3.60
2023-04-27T14:53:45.028Z,2.73
2023-04-27T14:56:48.087Z,3.93
2023-04-27T14:59:51.160Z,2.77
2023-04-27T15:02:55.878Z,3.10
2023-04-27T15:05:59.105Z,2.90
2023-04-27T15:09:02.318Z,3.93
2023-04-27T15:12:07.902Z,4.17
2023-04-27T15:15:12.849Z,2.73
2023-04-27T15:18:17.589Z,3.07
2023-04-27T15:21:20.752Z,2.73
2023-04-27T15:24:23.852Z,2.70
2023-04-27T15:27:27.931Z,3.40
2023-04-27T15:30:31.162Z,3.13
2023-04-27T15:33:35.593Z,3.03
2023-04-27T15:36:40.077Z,3.50
2023-04-27T15:39:43.212Z,3.03
2023-04-27T15:42:46.434Z,3.13
2023-04-27T15:45:51.920Z,4.00
2023-04-27T15:48:56.245Z,3.20
2023-04-27T15:51:59.310Z,3.33
2023-04-27T15:55:04.226Z,3.47
2023-04-27T15:58:07.616Z,3.77
2023-04-27T16:01:10.793Z,2.90
2023-04-27T16:04:15.330Z,3.53
2023-04-27T16:07:18.422Z,3.67
2023-04-27T16:10:21.494Z,3.37
2023-04-27T16:13:24.958Z,3.83
2023-04-27T16:16:28.649Z,3.57
2023-04-27T16:19:33.074Z,3.20
2023-04-27T16:22:36.820Z,4.43
2023-04-27T16:25:41.444Z,4.97
2023-04-27T16:28:44.775Z,4.20
2023-04-27T16:31:51.880Z,3.07
2023-04-27T16:34:56.288Z,4.37
2023-04-27T16:37:59.316Z,5.17
2023-04-27T16:41:02.347Z,4.57
2023-04-27T16:44:05.495Z,3.27
2023-04-27T16:47:08.471Z,3.10
2023-04-27T16:50:14.212Z,3.23
2023-04-27T16:53:20.975Z,3.00
2023-04-27T16:56:28.598Z,2.97
2023-04-27T16:59:32.476Z,3.10
2023-04-27T17:02:35.814Z,3.30
2023-04-27T17:05:40.293Z,3.63
2023-04-27T17:08:43.519Z,3.47
2023-04-27T17:11:46.832Z,3.43
2023-04-27T17:14:49.851Z,4.07
2023-04-27T17:17:53.172Z,3.23
2023-04-27T17:20:57.750Z,3.00
2023-04-27T17:24:01.037Z,3.67
2023-04-27T17:27:05.180Z,3.50
2023-04-27T17:30:09.484Z,3.53
2023-04-27T17:33:12.482Z,4.10
2023-04-27T17:36:16.847Z,4.90
2023-04-27T17:39:22.476Z,4.27
2023-04-27T17:42:25.656Z,3.57
2023-04-27T17:45:29.326Z,3.60
2023-04-27T17:48:32.536Z,3.40
2023-04-27T17:51:36.949Z,3.63
2023-04-27T17:54:41.116Z,3.53
2023-04-27T17:57:44.525Z,3.93
2023-04-27T18:00:47.953Z,3.97
2023-04-27T18:03:51.251Z,3.83
2023-04-27T18:06:56.011Z,3.67
2023-04-27T18:10:00.086Z,2.97
2023-04-27T18:13:03.857Z,3.20
2023-04-27T18:16:07.105Z,3.13
2023-04-27T18:19:10.286Z,3.60
2023-04-27T18:22:14.786Z,3.27
2023-04-27T18:25:17.786Z,3.10
2023-04-27T18:28:20.877Z,2.90
2023-04-27T18:31:24.748Z,3.60
2023-04-27T18:34:27.863Z,3.53
2023-04-27T18:37:32.184Z,4.07
2023-04-27T18:40:36.116Z,3.90
2023-04-27T18:43:40.254Z,4.00
2023-04-27T18:46:43.294Z,3.73
2023-04-27T18:49:46.357Z,3.70
2023-04-27T18:52:50.669Z,4.43
2023-04-27T18:55:53.672Z,3.73
2023-04-27T18:58:57.118Z,3.70
2023-04-27T19:02:00.229Z,4.00
2023-04-27T19:05:12.466Z,3.83
2023-04-27T19:08:17.913Z,4.00
2023-04-27T19:11:22.352Z,4.13
2023-04-27T19:14:25.847Z,4.03
2023-04-27T19:17:29.046Z,4.37
2023-04-27T19:20:32.074Z,4.17
2023-04-27T19:23:36.426Z,4.57
2023-04-27T19:26:39.739Z,4.50
2023-04-27T19:30:02.474Z,4.60
2023-04-27T19:33:06.049Z,4.77
2023-04-27T19:36:09.246Z,5.23
2023-04-27T19:39:15.648Z,5.20
2023-04-27T19:42:18.684Z,4.80
2023-04-27T19:45:22.227Z,4.13
2023-04-27T19:48:25.325Z,4.67
2023-04-27T19:51:29.228Z,5.00
2023-04-27T19:54:33.812Z,4.60
2023-04-27T19:57:37.373Z,4.90
2023-04-27T20:00:40.594Z,5.10
2023-04-27T20:03:44.381Z,5.27
2023-04-27T20:06:47.714Z,5.20
2023-04-27T20:09:54.624Z,5.77
2023-04-27T20:12:57.754Z,6.60
2023-04-27T20:16:01.447Z,7.00
2023-04-27T20:19:06.298Z,6.30
2023-04-27T20:22:09.449Z,5.87
2023-04-27T20:25:14.715Z,7.23
2023-04-27T20:28:17.935Z,6.70
2023-04-27T20:31:22.754Z,6.50
2023-04-27T20:34:25.866Z,5.77
2023-04-27T20:37:29.000Z,6.90
2023-04-27T20:40:33.316Z,5.97
2023-04-27T20:43:39.176Z,6.13
2023-04-27T20:46:42.441Z,6.80
2023-04-27T20:49:46.835Z,6.13
2023-04-27T20:52:49.924Z,6.37
2023-04-27T20:55:57.931Z,5.67
2023-04-27T20:59:01.122Z,6.77
2023-04-27T21:02:04.300Z,6.77
2023-04-27T21:05:07.517Z,5.83
2023-04-27T21:08:10.604Z,5.90
2023-04-27T21:11:16.673Z,7.80
2023-04-27T21:14:21.390Z,11.53
2023-04-27T21:17:25.189Z,11.67
2023-04-27T21:20:28.252Z,8.00
2023-04-27T21:23:31.432Z,8.10
2023-04-27T21:26:36.285Z,9.60
2023-04-27T21:29:39.634Z,8.20
2023-04-27T21:32:42.896Z,9.03
2023-04-27T21:35:45.988Z,11.53
2023-04-27T21:38:49.136Z,12.57
2023-04-27T21:41:53.576Z,10.30
2023-04-27T21:44:58.220Z,14.07
2023-04-27T21:48:01.525Z,13.37
2023-04-27T21:51:04.893Z,14.53
2023-04-27T21:54:07.927Z,15.63
2023-04-27T21:57:12.577Z,17.33
2023-04-27T22:00:19.103Z,16.10
2023-04-27T22:03:23.936Z,19.63
2023-04-27T22:06:27.443Z,21.17
2023-04-27T22:09:30.694Z,17.00
2023-04-27T22:12:35.440Z,21.33
2023-04-27T22:15:38.943Z,18.57
2023-04-27T22:18:42.125Z,20.90
2023-04-27T22:21:45.700Z,18.10
2023-04-27T22:24:48.893Z,15.97
2023-04-27T22:27:53.627Z,15.80
2023-04-27T22:30:57.088Z,15.97
2023-04-27T22:34:00.516Z,15.70
2023-04-27T22:37:03.715Z,14.40
2023-04-27T22:40:08.688Z,14.47
2023-04-27T22:43:13.205Z,14.33
2023-04-27T22:46:16.278Z,13.40
2023-04-27T22:49:19.307Z,11.43
2023-04-27T22:52:24.686Z,11.80
2023-04-27T22:55:27.929Z,12.67
2023-04-27T22:58:32.592Z,11.50
2023-04-27T23:01:36.140Z,12.60
2023-04-27T23:04:41.466Z,13.33
2023-04-27T23:07:46.146Z,12.10
2023-04-27T23:10:49.129Z,10.60
2023-04-27T23:13:54.688Z,10.90
2023-04-27T23:16:58.047Z,10.33
2023-04-27T23:20:02.603Z,13.30
2023-04-27T23:23:06.381Z,10.10
2023-04-27T23:26:14.342Z,12.70
2023-04-27T23:29:18.838Z,10.63
2023-04-27T23:32:21.907Z,12.47
2023-04-27T23:35:25.268Z,11.03
2023-04-27T23:38:28.351Z,9.63
2023-04-27T23:41:31.548Z,9.53
2023-04-27T23:44:36.303Z,10.47
2023-04-27T23:47:39.432Z,10.60
2023-04-27T23:50:42.447Z,9.50
2023-04-27T23:53:45.605Z,11.23
2023-04-27T23:56:48.720Z,10.60
2023-04-27T23:59:53.641Z,10.53
